sensor_id;sensor_type;location;lat;lon;timestamp;P1;durP1;ratioP1;P2;durP2;ratioP2
58071;SDS011;60383;46.626;18.866;2022-07-09T00:00:50;4.65;;;2.75;;
58071;SDS011;60383;46.626;18.866;2022-07-09T00:03:15;4.07;;;2.70;;
58071;SDS011;60383;46.626;18.866;2022-07-09T00:05:41;3.83;;;2.63;;
58071;SDS011;60383;46.626;18.866;2022-07-09T00:08:06;3.85;;;2.72;;
58071;SDS011;60383;46.626;18.866;2022-07-09T00:10:31;2.83;;;2.55;;
58071;SDS011;60383;46.626;18.866;2022-07-09T00:12:57;4.20;;;2.72;;
58071;SDS011;60383;46.626;18.866;2022-07-09T00:15:22;4.13;;;2.42;;
58071;SDS011;60383;46.626;18.866;2022-07-09T00:17:49;2.47;;;2.28;;
58071;SDS011;60383;46.626;18.866;2022-07-09T00:20:15;7.32;;;2.72;;
58071;SDS011;60383;46.626;18.866;2022-07-09T00:22:40;4.18;;;2.28;;
58071;SDS011;60383;46.626;18.866;2022-07-09T00:25:06;4.63;;;2.53;;
58071;SDS011;60383;46.626;18.866;2022-07-09T00:27:31;3.30;;;2.50;;
58071;SDS011;60383;46.626;18.866;2022-07-09T00:29:57;2.92;;;2.10;;
58071;SDS011;60383;46.626;18.866;2022-07-09T00:32:22;4.82;;;2.65;;
58071;SDS011;60383;46.626;18.866;2022-07-09T00:34:48;3.42;;;2.80;;
58071;SDS011;60383;46.626;18.866;2022-07-09T00:37:13;3.95;;;2.45;;
58071;SDS011;60383;46.626;18.866;2022-07-09T00:39:39;4.88;;;2.40;;
58071;SDS011;60383;46.626;18.866;2022-07-09T00:42:05;4.88;;;2.53;;
58071;SDS011;60383;46.626;18.866;2022-07-09T00:44:31;2.65;;;1.90;;
58071;SDS011;60383;46.626;18.866;2022-07-09T00:46:57;3.70;;;2.17;;
58071;SDS011;60383;46.626;18.866;2022-07-09T00:49:27;4.20;;;2.50;;
58071;SDS011;60383;46.626;18.866;2022-07-09T00:51:54;4.47;;;2.42;;
58071;SDS011;60383;46.626;18.866;2022-07-09T00:54:20;5.22;;;2.13;;
58071;SDS011;60383;46.626;18.866;2022-07-09T00:56:46;3.40;;;2.05;;
58071;SDS011;60383;46.626;18.866;2022-07-09T00:59:12;4.72;;;2.10;;
58071;SDS011;60383;46.626;18.866;2022-07-09T01:01:38;4.53;;;2.10;;
58071;SDS011;60383;46.626;18.866;2022-07-09T01:04:05;5.88;;;2.55;;
58071;SDS011;60383;46.626;18.866;2022-07-09T01:06:31;5.43;;;2.13;;
58071;SDS011;60383;46.626;18.866;2022-07-09T01:08:56;4.20;;;2.10;;
58071;SDS011;60383;46.626;18.866;2022-07-09T01:11:22;7.47;;;2.17;;
58071;SDS011;60383;46.626;18.866;2022-07-09T01:13:47;4.80;;;1.73;;
58071;SDS011;60383;46.626;18.866;2022-07-09T01:16:14;3.00;;;1.85;;
58071;SDS011;60383;46.626;18.866;2022-07-09T01:18:43;3.00;;;2.13;;
58071;SDS011;60383;46.626;18.866;2022-07-09T01:21:09;4.20;;;1.73;;
58071;SDS011;60383;46.626;18.866;2022-07-09T01:23:34;7.07;;;2.42;;
58071;SDS011;60383;46.626;18.866;2022-07-09T01:25:59;2.30;;;1.77;;
58071;SDS011;60383;46.626;18.866;2022-07-09T01:28:25;3.33;;;2.10;;
58071;SDS011;60383;46.626;18.866;2022-07-09T01:30:51;3.35;;;1.70;;
58071;SDS011;60383;46.626;18.866;2022-07-09T01:33:17;4.78;;;2.17;;
58071;SDS011;60383;46.626;18.866;2022-07-09T01:35:42;4.05;;;1.98;;
58071;SDS011;60383;46.626;18.866;2022-07-09T01:38:08;2.88;;;1.80;;
58071;SDS011;60383;46.626;18.866;2022-07-09T01:40:33;3.47;;;1.77;;
58071;SDS011;60383;46.626;18.866;2022-07-09T01:42:59;3.65;;;1.90;;
58071;SDS011;60383;46.626;18.866;2022-07-09T01:45:24;5.18;;;2.17;;
58071;SDS011;60383;46.626;18.866;2022-07-09T01:47:49;4.40;;;2.10;;
58071;SDS011;60383;46.626;18.866;2022-07-09T01:50:15;4.45;;;1.95;;
58071;SDS011;60383;46.626;18.866;2022-07-09T01:52:41;2.30;;;1.92;;
58071;SDS011;60383;46.626;18.866;2022-07-09T01:55:06;3.00;;;1.88;;
58071;SDS011;60383;46.626;18.866;2022-07-09T01:57:32;4.15;;;2.00;;
58071;SDS011;60383;46.626;18.866;2022-07-09T01:59:58;4.38;;;1.88;;
58071;SDS011;60383;46.626;18.866;2022-07-09T02:02:23;4.10;;;1.75;;
58071;SDS011;60383;46.626;18.866;2022-07-09T02:04:49;2.88;;;1.70;;
58071;SDS011;60383;46.626;18.866;2022-07-09T02:07:15;5.43;;;2.10;;
58071;SDS011;60383;46.626;18.866;2022-07-09T02:09:41;4.80;;;1.80;;
58071;SDS011;60383;46.626;18.866;2022-07-09T02:12:07;4.40;;;1.98;;
58071;SDS011;60383;46.626;18.866;2022-07-09T02:14:33;3.35;;;2.08;;
58071;SDS011;60383;46.626;18.866;2022-07-09T02:16:59;4.30;;;2.00;;
58071;SDS011;60383;46.626;18.866;2022-07-09T02:19:25;6.38;;;2.00;;
58071;SDS011;60383;46.626;18.866;2022-07-09T02:21:50;5.43;;;1.90;;
58071;SDS011;60383;46.626;18.866;2022-07-09T02:24:16;3.92;;;1.80;;
58071;SDS011;60383;46.626;18.866;2022-07-09T02:26:41;3.60;;;2.25;;
58071;SDS011;60383;46.626;18.866;2022-07-09T02:29:07;2.55;;;1.63;;
58071;SDS011;60383;46.626;18.866;2022-07-09T02:31:32;7.20;;;1.92;;
58071;SDS011;60383;46.626;18.866;2022-07-09T02:33:58;4.63;;;1.98;;
58071;SDS011;60383;46.626;18.866;2022-07-09T02:36:23;2.72;;;1.83;;
58071;SDS011;60383;46.626;18.866;2022-07-09T02:38:49;5.57;;;1.63;;
58071;SDS011;60383;46.626;18.866;2022-07-09T02:41:14;3.13;;;1.70;;
58071;SDS011;60383;46.626;18.866;2022-07-09T02:43:40;3.33;;;1.67;;
58071;SDS011;60383;46.626;18.866;2022-07-09T02:46:09;5.22;;;2.00;;
58071;SDS011;60383;46.626;18.866;2022-07-09T02:48:35;3.90;;;1.75;;
58071;SDS011;60383;46.626;18.866;2022-07-09T02:51:00;4.55;;;1.73;;
58071;SDS011;60383;46.626;18.866;2022-07-09T02:53:25;4.18;;;2.15;;
58071;SDS011;60383;46.626;18.866;2022-07-09T02:55:51;2.83;;;1.70;;
58071;SDS011;60383;46.626;18.866;2022-07-09T02:58:17;5.07;;;1.90;;
58071;SDS011;60383;46.626;18.866;2022-07-09T03:00:42;4.90;;;1.90;;
58071;SDS011;60383;46.626;18.866;2022-07-09T03:03:08;3.60;;;1.90;;
58071;SDS011;60383;46.626;18.866;2022-07-09T03:05:34;3.58;;;1.80;;
58071;SDS011;60383;46.626;18.866;2022-07-09T03:07:59;7.60;;;2.00;;
58071;SDS011;60383;46.626;18.866;2022-07-09T03:10:25;3.47;;;1.95;;
58071;SDS011;60383;46.626;18.866;2022-07-09T03:12:51;2.25;;;1.77;;
58071;SDS011;60383;46.626;18.866;2022-07-09T03:15:16;3.88;;;2.25;;
58071;SDS011;60383;46.626;18.866;2022-07-09T03:17:46;2.30;;;1.80;;
58071;SDS011;60383;46.626;18.866;2022-07-09T03:20:13;3.83;;;2.30;;
58071;SDS011;60383;46.626;18.866;2022-07-09T03:22:39;3.47;;;1.95;;
58071;SDS011;60383;46.626;18.866;2022-07-09T03:25:05;3.50;;;1.95;;
58071;SDS011;60383;46.626;18.866;2022-07-09T03:27:31;4.68;;;1.80;;
58071;SDS011;60383;46.626;18.866;2022-07-09T03:29:57;7.50;;;3.55;;
58071;SDS011;60383;46.626;18.866;2022-07-09T03:32:24;4.88;;;2.15;;
58071;SDS011;60383;46.626;18.866;2022-07-09T03:34:49;4.05;;;2.00;;
58071;SDS011;60383;46.626;18.866;2022-07-09T03:37:17;5.03;;;2.45;;
58071;SDS011;60383;46.626;18.866;2022-07-09T03:39:43;4.03;;;2.25;;
58071;SDS011;60383;46.626;18.866;2022-07-09T03:42:08;3.38;;;2.30;;
58071;SDS011;60383;46.626;18.866;2022-07-09T03:44:33;4.80;;;1.70;;
58071;SDS011;60383;46.626;18.866;2022-07-09T03:46:59;3.60;;;1.95;;
58071;SDS011;60383;46.626;18.866;2022-07-09T03:49:25;4.28;;;1.95;;
58071;SDS011;60383;46.626;18.866;2022-07-09T03:51:51;5.28;;;3.83;;
58071;SDS011;60383;46.626;18.866;2022-07-09T03:54:17;2.72;;;1.90;;
58071;SDS011;60383;46.626;18.866;2022-07-09T03:56:42;4.85;;;1.75;;
58071;SDS011;60383;46.626;18.866;2022-07-09T03:59:07;5.30;;;1.70;;
58071;SDS011;60383;46.626;18.866;2022-07-09T04:01:33;3.78;;;2.00;;
58071;SDS011;60383;46.626;18.866;2022-07-09T04:03:58;3.78;;;1.98;;
58071;SDS011;60383;46.626;18.866;2022-07-09T04:06:24;5.68;;;1.85;;
58071;SDS011;60383;46.626;18.866;2022-07-09T04:08:49;2.42;;;1.85;;
58071;SDS011;60383;46.626;18.866;2022-07-09T04:11:15;3.90;;;2.10;;
58071;SDS011;60383;46.626;18.866;2022-07-09T04:13:40;4.18;;;1.92;;
58071;SDS011;60383;46.626;18.866;2022-07-09T04:16:06;2.63;;;2.10;;
58071;SDS011;60383;46.626;18.866;2022-07-09T04:18:32;3.28;;;2.00;;
58071;SDS011;60383;46.626;18.866;2022-07-09T04:20:58;4.45;;;1.90;;
58071;SDS011;60383;46.626;18.866;2022-07-09T04:23:24;6.18;;;1.95;;
58071;SDS011;60383;46.626;18.866;2022-07-09T04:25:49;3.95;;;2.00;;
58071;SDS011;60383;46.626;18.866;2022-07-09T04:28:16;7.10;;;2.00;;
58071;SDS011;60383;46.626;18.866;2022-07-09T04:30:43;3.85;;;2.17;;
58071;SDS011;60383;46.626;18.866;2022-07-09T04:33:12;5.03;;;2.28;;
58071;SDS011;60383;46.626;18.866;2022-07-09T04:35:38;3.97;;;2.55;;
58071;SDS011;60383;46.626;18.866;2022-07-09T04:38:03;4.60;;;1.80;;
58071;SDS011;60383;46.626;18.866;2022-07-09T04:40:29;4.75;;;2.40;;
58071;SDS011;60383;46.626;18.866;2022-07-09T04:42:55;4.88;;;1.85;;
58071;SDS011;60383;46.626;18.866;2022-07-09T04:45:21;3.60;;;2.00;;
58071;SDS011;60383;46.626;18.866;2022-07-09T04:47:46;4.45;;;3.10;;
58071;SDS011;60383;46.626;18.866;2022-07-09T04:50:12;4.32;;;2.10;;
58071;SDS011;60383;46.626;18.866;2022-07-09T04:52:37;5.53;;;2.22;;
58071;SDS011;60383;46.626;18.866;2022-07-09T04:55:04;7.68;;;2.10;;
58071;SDS011;60383;46.626;18.866;2022-07-09T04:57:30;2.50;;;1.90;;
58071;SDS011;60383;46.626;18.866;2022-07-09T05:00:02;4.10;;;1.95;;
58071;SDS011;60383;46.626;18.866;2022-07-09T05:02:28;5.82;;;3.95;;
58071;SDS011;60383;46.626;18.866;2022-07-09T05:04:54;6.18;;;2.60;;
58071;SDS011;60383;46.626;18.866;2022-07-09T05:07:19;3.97;;;2.00;;
58071;SDS011;60383;46.626;18.866;2022-07-09T05:09:45;4.10;;;2.50;;
58071;SDS011;60383;46.626;18.866;2022-07-09T05:12:10;5.03;;;2.08;;
58071;SDS011;60383;46.626;18.866;2022-07-09T05:14:36;4.88;;;2.00;;
58071;SDS011;60383;46.626;18.866;2022-07-09T05:17:02;5.10;;;2.20;;
58071;SDS011;60383;46.626;18.866;2022-07-09T05:19:29;3.90;;;2.00;;
58071;SDS011;60383;46.626;18.866;2022-07-09T05:21:55;4.80;;;1.98;;
58071;SDS011;60383;46.626;18.866;2022-07-09T05:24:20;4.53;;;1.85;;
58071;SDS011;60383;46.626;18.866;2022-07-09T05:26:45;5.65;;;2.50;;
58071;SDS011;60383;46.626;18.866;2022-07-09T05:29:11;4.78;;;2.25;;
58071;SDS011;60383;46.626;18.866;2022-07-09T05:31:37;4.82;;;2.60;;
58071;SDS011;60383;46.626;18.866;2022-07-09T05:34:02;5.57;;;2.50;;
58071;SDS011;60383;46.626;18.866;2022-07-09T05:36:28;6.82;;;3.10;;
58071;SDS011;60383;46.626;18.866;2022-07-09T05:38:55;4.28;;;2.10;;
58071;SDS011;60383;46.626;18.866;2022-07-09T05:41:21;2.33;;;2.00;;
58071;SDS011;60383;46.626;18.866;2022-07-09T05:43:47;3.63;;;2.20;;
58071;SDS011;60383;46.626;18.866;2022-07-09T05:46:13;7.30;;;2.42;;
58071;SDS011;60383;46.626;18.866;2022-07-09T05:48:39;3.85;;;1.75;;
58071;SDS011;60383;46.626;18.866;2022-07-09T05:51:04;5.35;;;2.15;;
58071;SDS011;60383;46.626;18.866;2022-07-09T05:53:30;4.20;;;2.10;;
58071;SDS011;60383;46.626;18.866;2022-07-09T05:55:55;3.83;;;2.03;;
58071;SDS011;60383;46.626;18.866;2022-07-09T05:58:21;5.95;;;2.75;;
58071;SDS011;60383;46.626;18.866;2022-07-09T06:00:46;4.75;;;2.47;;
58071;SDS011;60383;46.626;18.866;2022-07-09T06:03:12;3.72;;;1.90;;
58071;SDS011;60383;46.626;18.866;2022-07-09T06:05:37;6.55;;;2.25;;
58071;SDS011;60383;46.626;18.866;2022-07-09T06:08:03;6.03;;;2.10;;
58071;SDS011;60383;46.626;18.866;2022-07-09T06:10:28;6.30;;;2.22;;
58071;SDS011;60383;46.626;18.866;2022-07-09T06:12:54;5.50;;;2.38;;
58071;SDS011;60383;46.626;18.866;2022-07-09T06:15:19;13.40;;;2.40;;
58071;SDS011;60383;46.626;18.866;2022-07-09T06:17:45;4.43;;;2.15;;
58071;SDS011;60383;46.626;18.866;2022-07-09T06:20:10;5.45;;;2.20;;
58071;SDS011;60383;46.626;18.866;2022-07-09T06:22:36;9.40;;;4.57;;
58071;SDS011;60383;46.626;18.866;2022-07-09T06:25:01;4.30;;;2.10;;
58071;SDS011;60383;46.626;18.866;2022-07-09T06:27:27;3.35;;;2.13;;
58071;SDS011;60383;46.626;18.866;2022-07-09T06:29:52;5.90;;;2.30;;
58071;SDS011;60383;46.626;18.866;2022-07-09T06:32:18;3.42;;;1.98;;
58071;SDS011;60383;46.626;18.866;2022-07-09T06:34:43;5.10;;;2.70;;
58071;SDS011;60383;46.626;18.866;2022-07-09T06:37:09;3.03;;;2.00;;
58071;SDS011;60383;46.626;18.866;2022-07-09T06:39:34;4.35;;;2.20;;
58071;SDS011;60383;46.626;18.866;2022-07-09T06:42:14;3.73;;;2.10;;
58071;SDS011;60383;46.626;18.866;2022-07-09T06:44:41;6.40;;;2.17;;
58071;SDS011;60383;46.626;18.866;2022-07-09T06:47:07;4.80;;;2.28;;
58071;SDS011;60383;46.626;18.866;2022-07-09T06:49:33;5.50;;;2.42;;
58071;SDS011;60383;46.626;18.866;2022-07-09T06:51:59;5.18;;;2.45;;
58071;SDS011;60383;46.626;18.866;2022-07-09T06:54:25;5.30;;;2.50;;
58071;SDS011;60383;46.626;18.866;2022-07-09T06:56:51;8.38;;;2.75;;
58071;SDS011;60383;46.626;18.866;2022-07-09T06:59:17;4.25;;;2.00;;
58071;SDS011;60383;46.626;18.866;2022-07-09T07:01:43;4.22;;;2.13;;
58071;SDS011;60383;46.626;18.866;2022-07-09T07:04:09;3.40;;;2.42;;
58071;SDS011;60383;46.626;18.866;2022-07-09T07:06:37;4.15;;;2.22;;
58071;SDS011;60383;46.626;18.866;2022-07-09T07:09:03;5.07;;;2.00;;
58071;SDS011;60383;46.626;18.866;2022-07-09T07:11:29;5.35;;;2.20;;
58071;SDS011;60383;46.626;18.866;2022-07-09T07:13:54;3.17;;;2.05;;
58071;SDS011;60383;46.626;18.866;2022-07-09T07:16:20;5.50;;;2.05;;
58071;SDS011;60383;46.626;18.866;2022-07-09T07:18:45;7.97;;;2.30;;
58071;SDS011;60383;46.626;18.866;2022-07-09T07:21:10;5.47;;;2.28;;
58071;SDS011;60383;46.626;18.866;2022-07-09T07:23:36;3.72;;;1.88;;
58071;SDS011;60383;46.626;18.866;2022-07-09T07:26:01;5.38;;;2.20;;
58071;SDS011;60383;46.626;18.866;2022-07-09T07:28:27;2.55;;;1.90;;
58071;SDS011;60383;46.626;18.866;2022-07-09T07:30:52;6.60;;;2.00;;
58071;SDS011;60383;46.626;18.866;2022-07-09T07:33:19;5.05;;;2.30;;
58071;SDS011;60383;46.626;18.866;2022-07-09T07:35:45;6.97;;;3.65;;
58071;SDS011;60383;46.626;18.866;2022-07-09T07:38:10;4.30;;;2.00;;
58071;SDS011;60383;46.626;18.866;2022-07-09T07:40:35;5.93;;;2.10;;
58071;SDS011;60383;46.626;18.866;2022-07-09T07:43:04;7.53;;;1.95;;
58071;SDS011;60383;46.626;18.866;2022-07-09T07:45:29;4.03;;;2.42;;
58071;SDS011;60383;46.626;18.866;2022-07-09T07:47:55;3.47;;;2.05;;
58071;SDS011;60383;46.626;18.866;2022-07-09T07:50:21;5.28;;;2.20;;
58071;SDS011;60383;46.626;18.866;2022-07-09T07:52:47;7.07;;;1.85;;
58071;SDS011;60383;46.626;18.866;2022-07-09T07:55:13;4.03;;;2.03;;
58071;SDS011;60383;46.626;18.866;2022-07-09T07:57:39;2.90;;;1.85;;
58071;SDS011;60383;46.626;18.866;2022-07-09T08:00:04;5.13;;;2.13;;
58071;SDS011;60383;46.626;18.866;2022-07-09T08:02:31;4.50;;;1.90;;
58071;SDS011;60383;46.626;18.866;2022-07-09T08:04:56;4.22;;;2.20;;
58071;SDS011;60383;46.626;18.866;2022-07-09T08:07:22;5.55;;;2.08;;
58071;SDS011;60383;46.626;18.866;2022-07-09T08:09:48;6.45;;;2.08;;
58071;SDS011;60383;46.626;18.866;2022-07-09T08:12:13;4.90;;;2.08;;
58071;SDS011;60383;46.626;18.866;2022-07-09T08:14:39;5.13;;;2.53;;
58071;SDS011;60383;46.626;18.866;2022-07-09T08:17:04;6.07;;;2.60;;
58071;SDS011;60383;46.626;18.866;2022-07-09T08:19:30;3.35;;;1.60;;
58071;SDS011;60383;46.626;18.866;2022-07-09T08:21:55;5.70;;;2.15;;
58071;SDS011;60383;46.626;18.866;2022-07-09T08:24:21;3.83;;;2.17;;
58071;SDS011;60383;46.626;18.866;2022-07-09T08:26:47;3.83;;;2.13;;
58071;SDS011;60383;46.626;18.866;2022-07-09T08:29:13;5.00;;;1.75;;
58071;SDS011;60383;46.626;18.866;2022-07-09T08:31:38;5.18;;;2.08;;
58071;SDS011;60383;46.626;18.866;2022-07-09T08:34:03;4.93;;;2.10;;
58071;SDS011;60383;46.626;18.866;2022-07-09T08:36:29;3.15;;;1.85;;
58071;SDS011;60383;46.626;18.866;2022-07-09T08:38:55;4.85;;;2.38;;
58071;SDS011;60383;46.626;18.866;2022-07-09T08:41:20;4.47;;;1.90;;
58071;SDS011;60383;46.626;18.866;2022-07-09T08:43:49;6.53;;;1.80;;
58071;SDS011;60383;46.626;18.866;2022-07-09T08:46:16;4.53;;;1.70;;
58071;SDS011;60383;46.626;18.866;2022-07-09T08:48:42;3.13;;;1.90;;
58071;SDS011;60383;46.626;18.866;2022-07-09T08:51:09;3.92;;;1.60;;
58071;SDS011;60383;46.626;18.866;2022-07-09T08:53:36;3.25;;;1.65;;
58071;SDS011;60383;46.626;18.866;2022-07-09T08:56:05;3.35;;;1.65;;
58071;SDS011;60383;46.626;18.866;2022-07-09T08:58:31;5.40;;;2.03;;
58071;SDS011;60383;46.626;18.866;2022-07-09T09:00:57;4.00;;;1.77;;
58071;SDS011;60383;46.626;18.866;2022-07-09T09:03:23;4.53;;;1.80;;
58071;SDS011;60383;46.626;18.866;2022-07-09T09:05:59;3.20;;;1.88;;
58071;SDS011;60383;46.626;18.866;2022-07-09T09:08:36;2.75;;;1.55;;
58071;SDS011;60383;46.626;18.866;2022-07-09T09:11:07;2.47;;;1.52;;
58071;SDS011;60383;46.626;18.866;2022-07-09T09:13:40;4.95;;;1.42;;
58071;SDS011;60383;46.626;18.866;2022-07-09T09:16:07;7.32;;;1.70;;
58071;SDS011;60383;46.626;18.866;2022-07-09T09:18:35;3.88;;;1.80;;
58071;SDS011;60383;46.626;18.866;2022-07-09T09:21:05;6.35;;;1.90;;
58071;SDS011;60383;46.626;18.866;2022-07-09T09:26:09;2.55;;;1.42;;
58071;SDS011;60383;46.626;18.866;2022-07-09T09:28:35;5.22;;;1.67;;
58071;SDS011;60383;46.626;18.866;2022-07-09T09:31:23;5.38;;;1.50;;
58071;SDS011;60383;46.626;18.866;2022-07-09T09:33:56;4.53;;;1.80;;
58071;SDS011;60383;46.626;18.866;2022-07-09T09:36:38;2.67;;;1.48;;
58071;SDS011;60383;46.626;18.866;2022-07-09T09:41:38;4.05;;;1.38;;
58071;SDS011;60383;46.626;18.866;2022-07-09T09:44:05;4.03;;;1.50;;
58071;SDS011;60383;46.626;18.866;2022-07-09T09:46:38;4.82;;;1.70;;
58071;SDS011;60383;46.626;18.866;2022-07-09T09:49:06;5.47;;;1.50;;
58071;SDS011;60383;46.626;18.866;2022-07-09T09:51:37;4.55;;;1.20;;
58071;SDS011;60383;46.626;18.866;2022-07-09T09:54:09;2.97;;;1.38;;
58071;SDS011;60383;46.626;18.866;2022-07-09T09:56:36;1.65;;;1.30;;
58071;SDS011;60383;46.626;18.866;2022-07-09T09:59:03;4.65;;;1.40;;
58071;SDS011;60383;46.626;18.866;2022-07-09T10:01:32;2.22;;;1.30;;
58071;SDS011;60383;46.626;18.866;2022-07-09T10:03:58;3.28;;;1.60;;
58071;SDS011;60383;46.626;18.866;2022-07-09T10:06:24;2.65;;;1.30;;
58071;SDS011;60383;46.626;18.866;2022-07-09T10:08:51;4.82;;;1.67;;
58071;SDS011;60383;46.626;18.866;2022-07-09T10:11:18;5.03;;;1.52;;
58071;SDS011;60383;46.626;18.866;2022-07-09T10:13:53;4.22;;;1.48;;
58071;SDS011;60383;46.626;18.866;2022-07-09T10:16:36;3.67;;;1.30;;
58071;SDS011;60383;46.626;18.866;2022-07-09T10:19:03;4.82;;;1.38;;
58071;SDS011;60383;46.626;18.866;2022-07-09T10:21:33;2.65;;;1.33;;
58071;SDS011;60383;46.626;18.866;2022-07-09T10:23:59;5.40;;;1.50;;
58071;SDS011;60383;46.626;18.866;2022-07-09T10:26:36;3.67;;;1.38;;
58071;SDS011;60383;46.626;18.866;2022-07-09T10:29:16;2.53;;;1.30;;
58071;SDS011;60383;46.626;18.866;2022-07-09T10:31:53;4.95;;;1.40;;
58071;SDS011;60383;46.626;18.866;2022-07-09T10:34:43;2.65;;;1.30;;
58071;SDS011;60383;46.626;18.866;2022-07-09T10:37:12;2.53;;;1.20;;
58071;SDS011;60383;46.626;18.866;2022-07-09T10:39:38;3.25;;;1.10;;
58071;SDS011;60383;46.626;18.866;2022-07-09T10:44:39;4.65;;;1.55;;
58071;SDS011;60383;46.626;18.866;2022-07-09T10:47:06;2.10;;;1.02;;
58071;SDS011;60383;46.626;18.866;2022-07-09T10:49:35;3.03;;;1.35;;
58071;SDS011;60383;46.626;18.866;2022-07-09T10:54:27;3.17;;;1.60;;
58071;SDS011;60383;46.626;18.866;2022-07-09T10:56:52;4.75;;;1.35;;
58071;SDS011;60383;46.626;18.866;2022-07-09T10:59:19;4.15;;;1.13;;
58071;SDS011;60383;46.626;18.866;2022-07-09T11:01:45;4.03;;;1.05;;
58071;SDS011;60383;46.626;18.866;2022-07-09T11:04:11;2.17;;;1.20;;
58071;SDS011;60383;46.626;18.866;2022-07-09T11:06:46;2.88;;;1.08;;
58071;SDS011;60383;46.626;18.866;2022-07-09T11:09:15;3.40;;;1.35;;
58071;SDS011;60383;46.626;18.866;2022-07-09T11:11:42;4.32;;;1.30;;
58071;SDS011;60383;46.626;18.866;2022-07-09T11:14:11;3.28;;;1.00;;
58071;SDS011;60383;46.626;18.866;2022-07-09T11:16:37;2.50;;;0.90;;
58071;SDS011;60383;46.626;18.866;2022-07-09T11:19:15;2.70;;;1.00;;
58071;SDS011;60383;46.626;18.866;2022-07-09T11:21:43;4.22;;;1.00;;
58071;SDS011;60383;46.626;18.866;2022-07-09T11:24:13;3.35;;;1.05;;
58071;SDS011;60383;46.626;18.866;2022-07-09T11:26:48;2.30;;;0.90;;
58071;SDS011;60383;46.626;18.866;2022-07-09T11:29:14;4.85;;;0.98;;
58071;SDS011;60383;46.626;18.866;2022-07-09T11:31:51;3.15;;;1.10;;
58071;SDS011;60383;46.626;18.866;2022-07-09T11:34:17;2.72;;;0.90;;
58071;SDS011;60383;46.626;18.866;2022-07-09T11:36:47;4.45;;;0.88;;
58071;SDS011;60383;46.626;18.866;2022-07-09T11:39:26;2.92;;;1.10;;
58071;SDS011;60383;46.626;18.866;2022-07-09T11:41:52;3.85;;;1.33;;
58071;SDS011;60383;46.626;18.866;2022-07-09T11:44:19;3.72;;;1.00;;
58071;SDS011;60383;46.626;18.866;2022-07-09T11:49:37;2.38;;;1.10;;
58071;SDS011;60383;46.626;18.866;2022-07-09T11:52:15;4.27;;;1.27;;
58071;SDS011;60383;46.626;18.866;2022-07-09T11:54:56;3.35;;;1.20;;
58071;SDS011;60383;46.626;18.866;2022-07-09T11:57:30;3.30;;;1.17;;
58071;SDS011;60383;46.626;18.866;2022-07-09T11:59:58;2.72;;;1.10;;
58071;SDS011;60383;46.626;18.866;2022-07-09T12:04:57;2.72;;;1.10;;
58071;SDS011;60383;46.626;18.866;2022-07-09T12:07:24;3.60;;;1.15;;
58071;SDS011;60383;46.626;18.866;2022-07-09T12:10:03;3.92;;;1.38;;
58071;SDS011;60383;46.626;18.866;2022-07-09T12:12:36;2.95;;;1.20;;
58071;SDS011;60383;46.626;18.866;2022-07-09T12:15:03;2.65;;;1.25;;
58071;SDS011;60383;46.626;18.866;2022-07-09T12:17:30;2.63;;;1.10;;
58071;SDS011;60383;46.626;18.866;2022-07-09T12:19:57;6.85;;;1.33;;
58071;SDS011;60383;46.626;18.866;2022-07-09T12:22:23;4.65;;;1.38;;
58071;SDS011;60383;46.626;18.866;2022-07-09T12:24:50;2.75;;;0.98;;
58071;SDS011;60383;46.626;18.866;2022-07-09T12:27:17;3.05;;;0.98;;
58071;SDS011;60383;46.626;18.866;2022-07-09T12:29:45;6.32;;;1.25;;
58071;SDS011;60383;46.626;18.866;2022-07-09T12:32:11;3.03;;;1.10;;
58071;SDS011;60383;46.626;18.866;2022-07-09T12:34:37;3.47;;;1.10;;
58071;SDS011;60383;46.626;18.866;2022-07-09T12:37:03;2.95;;;0.95;;
58071;SDS011;60383;46.626;18.866;2022-07-09T12:39:29;2.50;;;0.90;;
58071;SDS011;60383;46.626;18.866;2022-07-09T12:41:55;2.63;;;1.00;;
58071;SDS011;60383;46.626;18.866;2022-07-09T12:44:20;1.92;;;1.00;;
58071;SDS011;60383;46.626;18.866;2022-07-09T12:46:46;4.63;;;1.00;;
58071;SDS011;60383;46.626;18.866;2022-07-09T12:49:11;1.95;;;0.90;;
58071;SDS011;60383;46.626;18.866;2022-07-09T12:51:37;2.10;;;1.15;;
58071;SDS011;60383;46.626;18.866;2022-07-09T12:54:02;3.92;;;1.10;;
58071;SDS011;60383;46.626;18.866;2022-07-09T12:56:28;1.80;;;0.90;;
58071;SDS011;60383;46.626;18.866;2022-07-09T12:58:53;3.08;;;1.60;;
58071;SDS011;60383;46.626;18.866;2022-07-09T13:01:18;1.92;;;0.95;;
58071;SDS011;60383;46.626;18.866;2022-07-09T13:03:44;2.10;;;0.90;;
58071;SDS011;60383;46.626;18.866;2022-07-09T13:06:10;2.88;;;1.00;;
58071;SDS011;60383;46.626;18.866;2022-07-09T13:08:53;2.83;;;1.10;;
58071;SDS011;60383;46.626;18.866;2022-07-09T13:11:19;2.60;;;1.00;;
58071;SDS011;60383;46.626;18.866;2022-07-09T13:13:45;3.10;;;1.10;;
58071;SDS011;60383;46.626;18.866;2022-07-09T13:16:11;1.38;;;1.00;;
58071;SDS011;60383;46.626;18.866;2022-07-09T13:18:36;2.40;;;1.10;;
58071;SDS011;60383;46.626;18.866;2022-07-09T13:21:02;3.58;;;1.00;;
58071;SDS011;60383;46.626;18.866;2022-07-09T13:23:27;4.43;;;1.20;;
58071;SDS011;60383;46.626;18.866;2022-07-09T13:25:53;3.72;;;1.10;;
58071;SDS011;60383;46.626;18.866;2022-07-09T13:28:18;1.38;;;1.00;;
58071;SDS011;60383;46.626;18.866;2022-07-09T13:30:44;4.55;;;0.90;;
58071;SDS011;60383;46.626;18.866;2022-07-09T13:33:09;3.42;;;0.85;;
58071;SDS011;60383;46.626;18.866;2022-07-09T13:35:34;2.97;;;1.00;;
58071;SDS011;60383;46.626;18.866;2022-07-09T13:38:00;3.28;;;0.88;;
58071;SDS011;60383;46.626;18.866;2022-07-09T13:40:25;3.42;;;1.10;;
58071;SDS011;60383;46.626;18.866;2022-07-09T13:42:51;4.60;;;0.80;;
58071;SDS011;60383;46.626;18.866;2022-07-09T13:45:16;4.50;;;0.80;;
58071;SDS011;60383;46.626;18.866;2022-07-09T13:47:42;7.05;;;1.10;;
58071;SDS011;60383;46.626;18.866;2022-07-09T13:50:08;3.20;;;0.90;;
58071;SDS011;60383;46.626;18.866;2022-07-09T13:52:33;2.15;;;0.90;;
58071;SDS011;60383;46.626;18.866;2022-07-09T13:54:59;3.40;;;0.80;;
58071;SDS011;60383;46.626;18.866;2022-07-09T13:57:24;2.03;;;0.80;;
58071;SDS011;60383;46.626;18.866;2022-07-09T13:59:50;6.13;;;1.00;;
58071;SDS011;60383;46.626;18.866;2022-07-09T14:02:15;2.88;;;0.80;;
58071;SDS011;60383;46.626;18.866;2022-07-09T14:04:41;4.57;;;1.10;;
58071;SDS011;60383;46.626;18.866;2022-07-09T14:07:06;4.82;;;0.93;;
58071;SDS011;60383;46.626;18.866;2022-07-09T14:09:32;2.45;;;0.80;;
58071;SDS011;60383;46.626;18.866;2022-07-09T14:11:58;2.83;;;0.82;;
58071;SDS011;60383;46.626;18.866;2022-07-09T14:14:23;2.30;;;0.80;;
58071;SDS011;60383;46.626;18.866;2022-07-09T14:16:48;3.40;;;1.08;;
58071;SDS011;60383;46.626;18.866;2022-07-09T14:19:14;2.33;;;0.98;;
58071;SDS011;60383;46.626;18.866;2022-07-09T14:21:39;2.45;;;0.93;;
58071;SDS011;60383;46.626;18.866;2022-07-09T14:24:05;2.75;;;0.73;;
58071;SDS011;60383;46.626;18.866;2022-07-09T14:26:30;2.25;;;0.90;;
58071;SDS011;60383;46.626;18.866;2022-07-09T14:28:56;2.45;;;0.80;;
58071;SDS011;60383;46.626;18.866;2022-07-09T14:31:21;3.55;;;1.00;;
58071;SDS011;60383;46.626;18.866;2022-07-09T14:33:47;6.00;;;1.30;;
58071;SDS011;60383;46.626;18.866;2022-07-09T14:36:12;2.63;;;1.00;;
58071;SDS011;60383;46.626;18.866;2022-07-09T14:38:38;2.47;;;1.00;;
58071;SDS011;60383;46.626;18.866;2022-07-09T14:41:04;5.03;;;1.05;;
58071;SDS011;60383;46.626;18.866;2022-07-09T14:43:29;1.77;;;1.02;;
58071;SDS011;60383;46.626;18.866;2022-07-09T14:45:55;1.83;;;0.90;;